sensor_id;sensor_type;location;lat;lon;timestamp;pressure;altitude;pressure_sealevel;temperature;humidity
58471;BME280;44258;51.288;12.068;2022-08-11T00:00:46;101203.19;;;19.09;43.42
58471;BME280;44258;51.288;12.068;2022-08-11T00:03:14;101211.56;;;18.95;43.34
58471;BME280;44258;51.288;12.068;2022-08-11T00:05:45;101209.38;;;19.00;43.61
58471;BME280;44258;51.288;12.068;2022-08-11T00:08:20;101211.09;;;19.01;43.63
58471;BME280;44258;51.288;12.068;2022-08-11T00:10:51;101208.78;;;19.08;43.08
58471;BME280;44258;51.288;12.068;2022-08-11T00:13:19;101203.81;;;19.13;43.19
58471;BME280;44258;51.288;12.068;2022-08-11T00:15:48;101205.16;;;19.07;43.35
58471;BME280;44258;51.288;12.068;2022-08-11T00:18:15;101206.38;;;19.03;43.67
58471;BME280;44258;51.288;12.068;2022-08-11T00:20:43;101202.97;;;19.12;43.02
58471;BME280;44258;51.288;12.068;2022-08-11T00:23:12;101207.41;;;19.13;43.39
58471;BME280;44258;51.288;12.068;2022-08-11T00:25:41;101209.53;;;19.21;43.15
58471;BME280;44258;51.288;12.068;2022-08-11T00:28:23;101207.13;;;19.05;43.77
58471;BME280;44258;51.288;12.068;2022-08-11T00:30:52;101210.28;;;19.12;43.29
58471;BME280;44258;51.288;12.068;2022-08-11T00:33:21;101209.75;;;19.07;43.63
58471;BME280;44258;51.288;12.068;2022-08-11T00:35:50;101213.97;;;18.76;44.98
58471;BME280;44258;51.288;12.068;2022-08-11T00:38:22;101222.06;;;18.64;44.44
58471;BME280;44258;51.288;12.068;2022-08-11T00:40:54;101229.66;;;18.72;43.82
58471;BME280;44258;51.288;12.068;2022-08-11T00:43:35;101220.28;;;18.52;43.52
58471;BME280;44258;51.288;12.068;2022-08-11T00:46:12;101222.53;;;18.10;44.34
58471;BME280;44258;51.288;12.068;2022-08-11T00:48:48;101222.19;;;18.14;44.11
58471;BME280;44258;51.288;12.068;2022-08-11T00:51:25;101216.56;;;17.66;44.90
58471;BME280;44258;51.288;12.068;2022-08-11T00:54:07;101224.59;;;17.81;44.49
58471;BME280;44258;51.288;12.068;2022-08-11T00:57:10;101211.75;;;17.83;44.74
58471;BME280;44258;51.288;12.068;2022-08-11T01:00:02;101214.34;;;17.97;44.46
58471;BME280;44258;51.288;12.068;2022-08-11T01:02:45;101220.88;;;17.94;44.40
58471;BME280;44258;51.288;12.068;2022-08-11T01:05:40;101220.28;;;17.52;45.57
58471;BME280;44258;51.288;12.068;2022-08-11T01:08:28;101223.13;;;17.64;45.01
58471;BME280;44258;51.288;12.068;2022-08-11T01:11:19;101218.41;;;17.91;44.31
58471;BME280;44258;51.288;12.068;2022-08-11T01:14:22;101222.81;;;18.05;44.91
58471;BME280;44258;51.288;12.068;2022-08-11T01:17:12;101224.03;;;18.01;44.45
58471;BME280;44258;51.288;12.068;2022-08-11T01:20:10;101217.50;;;17.91;44.77
58471;BME280;44258;51.288;12.068;2022-08-11T01:23:24;101223.41;;;17.85;45.20
58471;BME280;44258;51.288;12.068;2022-08-11T01:26:26;101229.50;;;17.88;44.89
58471;BME280;44258;51.288;12.068;2022-08-11T01:29:24;101228.53;;;17.89;44.80
58471;BME280;44258;51.288;12.068;2022-08-11T01:32:03;101233.09;;;18.02;45.13
58471;BME280;44258;51.288;12.068;2022-08-11T01:41:25;101222.91;;;17.41;45.64
58471;BME280;44258;51.288;12.068;2022-08-11T01:44:38;101229.63;;;17.48;45.16
58471;BME280;44258;51.288;12.068;2022-08-11T01:47:24;101231.81;;;17.43;45.04
58471;BME280;44258;51.288;12.068;2022-08-11T01:50:17;101237.25;;;17.43;44.49
58471;BME280;44258;51.288;12.068;2022-08-11T01:53:03;101225.72;;;17.40;44.75
58471;BME280;44258;51.288;12.068;2022-08-11T01:55:39;101228.44;;;17.52;44.24
58471;BME280;44258;51.288;12.068;2022-08-11T01:58:15;101225.53;;;17.43;44.52
58471;BME280;44258;51.288;12.068;2022-08-11T02:00:51;101221.28;;;17.51;44.11
58471;BME280;44258;51.288;12.068;2022-08-11T02:03:24;101216.25;;;17.58;43.66
58471;BME280;44258;51.288;12.068;2022-08-11T02:05:59;101230.09;;;17.55;43.92
58471;BME280;44258;51.288;12.068;2022-08-11T02:08:41;101219.19;;;17.29;44.32
58471;BME280;44258;51.288;12.068;2022-08-11T02:11:20;101221.22;;;17.13;44.83
58471;BME280;44258;51.288;12.068;2022-08-11T02:14:02;101224.38;;;17.20;44.98
58471;BME280;44258;51.288;12.068;2022-08-11T02:16:43;101220.97;;;17.30;44.58
58471;BME280;44258;51.288;12.068;2022-08-11T02:19:22;101225.06;;;17.36;44.36
58471;BME280;44258;51.288;12.068;2022-08-11T02:22:12;101225.84;;;17.38;44.40
58471;BME280;44258;51.288;12.068;2022-08-11T02:25:02;101223.53;;;17.32;44.18
58471;BME280;44258;51.288;12.068;2022-08-11T02:27:37;101220.06;;;17.30;44.58
58471;BME280;44258;51.288;12.068;2022-08-11T02:30:08;101220.06;;;17.30;44.80
58471;BME280;44258;51.288;12.068;2022-08-11T02:32:45;101222.09;;;17.13;44.78
58471;BME280;44258;51.288;12.068;2022-08-11T02:35:37;101220.88;;;16.92;45.25
58471;BME280;44258;51.288;12.068;2022-08-11T02:38:25;101218.34;;;16.89;45.52
58471;BME280;44258;51.288;12.068;2022-08-11T02:41:00;101224.44;;;16.92;45.60
58471;BME280;44258;51.288;12.068;2022-08-11T02:43:35;101220.22;;;17.01;45.63
58471;BME280;44258;51.288;12.068;2022-08-11T02:46:17;101225.88;;;16.98;45.74
58471;BME280;44258;51.288;12.068;2022-08-11T02:48:55;101223.59;;;16.92;45.59
58471;BME280;44258;51.288;12.068;2022-08-11T02:51:52;101230.75;;;16.93;45.74
58471;BME280;44258;51.288;12.068;2022-08-11T02:54:22;101225.00;;;16.98;45.34
58471;BME280;44258;51.288;12.068;2022-08-11T02:56:56;101215.09;;;16.84;45.57
58471;BME280;44258;51.288;12.068;2022-08-11T02:59:30;101220.72;;;16.81;45.80
58471;BME280;44258;51.288;12.068;2022-08-11T03:02:42;101233.44;;;16.53;46.32
58471;BME280;44258;51.288;12.068;2022-08-11T03:05:25;101230.19;;;16.48;46.13
58471;BME280;44258;51.288;12.068;2022-08-11T03:10:53;101221.81;;;16.51;45.84
58471;BME280;44258;51.288;12.068;2022-08-11T03:13:45;101227.88;;;16.42;45.90
58471;BME280;44258;51.288;12.068;2022-08-11T03:16:36;101224.81;;;16.33;46.09
58471;BME280;44258;51.288;12.068;2022-08-11T03:19:20;101230.59;;;16.27;46.11
58471;BME280;44258;51.288;12.068;2022-08-11T03:21:55;101231.47;;;16.28;45.99
58471;BME280;44258;51.288;12.068;2022-08-11T03:24:30;101229.06;;;16.23;46.08
58471;BME280;44258;51.288;12.068;2022-08-11T03:27:03;101230.31;;;16.18;46.39
58471;BME280;44258;51.288;12.068;2022-08-11T03:29:34;101231.09;;;16.20;46.56
58471;BME280;44258;51.288;12.068;2022-08-11T03:32:06;101237.69;;;16.15;46.43
58471;BME280;44258;51.288;12.068;2022-08-11T03:34:38;101236.94;;;16.13;46.66
58471;BME280;44258;51.288;12.068;2022-08-11T03:37:24;101235.34;;;16.24;46.75
58471;BME280;44258;51.288;12.068;2022-08-11T03:40:22;101244.22;;;15.99;47.49
58471;BME280;44258;51.288;12.068;2022-08-11T03:43:23;101239.84;;;16.10;46.84
58471;BME280;44258;51.288;12.068;2022-08-11T03:46:00;101247.19;;;16.23;46.11
58471;BME280;44258;51.288;12.068;2022-08-11T03:48:39;101249.78;;;16.24;46.65
58471;BME280;44258;51.288;12.068;2022-08-11T03:51:14;101239.25;;;16.20;46.78
58471;BME280;44258;51.288;12.068;2022-08-11T03:53:54;101241.66;;;16.24;46.87
58471;BME280;44258;51.288;12.068;2022-08-11T03:57:00;101235.34;;;16.24;47.01
58471;BME280;44258;51.288;12.068;2022-08-11T04:00:02;101236.34;;;16.23;47.32
58471;BME280;44258;51.288;12.068;2022-08-11T04:02:53;101244.94;;;15.88;48.14
58471;BME280;44258;51.288;12.068;2022-08-11T04:05:38;101233.66;;;15.65;48.78
58471;BME280;44258;51.288;12.068;2022-08-11T04:08:34;101243.34;;;15.55;49.18
58471;BME280;44258;51.288;12.068;2022-08-11T04:11:16;101245.19;;;15.54;49.26
58471;BME280;44258;51.288;12.068;2022-08-11T04:14:17;101249.00;;;15.66;49.48
58471;BME280;44258;51.288;12.068;2022-08-11T04:17:38;101243.66;;;15.79;49.50
58471;BME280;44258;51.288;12.068;2022-08-11T04:20:43;101236.59;;;15.77;50.45
58471;BME280;44258;51.288;12.068;2022-08-11T04:23:23;101246.19;;;15.82;49.68
58471;BME280;44258;51.288;12.068;2022-08-11T04:26:20;101239.69;;;15.85;49.84
58471;BME280;44258;51.288;12.068;2022-08-11T04:29:02;101241.81;;;15.94;49.22
58471;BME280;44258;51.288;12.068;2022-08-11T04:31:35;101244.59;;;16.07;48.71
58471;BME280;44258;51.288;12.068;2022-08-11T04:34:11;101246.66;;;15.89;48.95
58471;BME280;44258;51.288;12.068;2022-08-11T04:37:00;101246.06;;;15.98;49.28
58471;BME280;44258;51.288;12.068;2022-08-11T04:40:05;101254.03;;;16.28;48.99
58471;BME280;44258;51.288;12.068;2022-08-11T04:46:18;101248.19;;;16.49;48.47
58471;BME280;44258;51.288;12.068;2022-08-11T04:49:04;101247.41;;;16.61;48.03
58471;BME280;44258;51.288;12.068;2022-08-11T04:52:06;101254.91;;;16.70;47.73
58471;BME280;44258;51.288;12.068;2022-08-11T04:55:08;101253.63;;;16.76;47.88
58471;BME280;44258;51.288;12.068;2022-08-11T04:58:08;101249.22;;;16.88;47.79
58471;BME280;44258;51.288;12.068;2022-08-11T05:01:04;101247.63;;;16.98;47.73
58471;BME280;44258;51.288;12.068;2022-08-11T05:04:13;101249.25;;;17.01;47.75
58471;BME280;44258;51.288;12.068;2022-08-11T05:09:58;101253.47;;;16.65;48.18
58471;BME280;44258;51.288;12.068;2022-08-11T05:12:29;101254.34;;;17.05;47.51
58471;BME280;44258;51.288;12.068;2022-08-11T05:15:00;101252.44;;;17.20;46.94
58471;BME280;44258;51.288;12.068;2022-08-11T05:17:54;101254.59;;;17.15;47.43
58471;BME280;44258;51.288;12.068;2022-08-11T05:20:47;101265.94;;;17.22;47.22
58471;BME280;44258;51.288;12.068;2022-08-11T05:23:34;101256.16;;;17.32;46.82
58471;BME280;44258;51.288;12.068;2022-08-11T05:26:23;101253.78;;;17.40;46.69
58471;BME280;44258;51.288;12.068;2022-08-11T05:29:25;101260.66;;;17.46;46.82
58471;BME280;44258;51.288;12.068;2022-08-11T05:32:12;101251.59;;;17.71;46.02
58471;BME280;44258;51.288;12.068;2022-08-11T05:35:01;101257.16;;;17.82;46.03
58471;BME280;44258;51.288;12.068;2022-08-11T05:37:34;101254.13;;;17.74;46.11
58471;BME280;44258;51.288;12.068;2022-08-11T05:40:06;101255.31;;;17.70;45.94
58471;BME280;44258;51.288;12.068;2022-08-11T05:42:55;101264.34;;;17.58;46.37
58471;BME280;44258;51.288;12.068;2022-08-11T05:45:40;101260.66;;;17.71;46.31
58471;BME280;44258;51.288;12.068;2022-08-11T05:48:29;101261.94;;;17.79;46.17
58471;BME280;44258;51.288;12.068;2022-08-11T05:51:15;101263.66;;;17.92;46.10
58471;BME280;44258;51.288;12.068;2022-08-11T05:54:02;101263.00;;;18.14;45.70
58471;BME280;44258;51.288;12.068;2022-08-11T05:56:50;101262.44;;;18.22;45.59
58471;BME280;44258;51.288;12.068;2022-08-11T05:59:18;101271.22;;;18.39;45.34
58471;BME280;44258;51.288;12.068;2022-08-11T06:01:46;101265.38;;;18.56;44.97
58471;BME280;44258;51.288;12.068;2022-08-11T06:04:16;101265.09;;;18.72;45.11
58471;BME280;44258;51.288;12.068;2022-08-11T06:06:53;101275.53;;;19.02;44.49
58471;BME280;44258;51.288;12.068;2022-08-11T06:09:27;101277.47;;;19.24;44.12
58471;BME280;44258;51.288;12.068;2022-08-11T06:12:03;101272.56;;;19.05;44.22
58471;BME280;44258;51.288;12.068;2022-08-11T06:14:31;101280.22;;;19.36;43.86
58471;BME280;44258;51.288;12.068;2022-08-11T06:17:00;101276.06;;;19.65;43.69
58471;BME280;44258;51.288;12.068;2022-08-11T06:19:35;101281.97;;;20.06;42.86
58471;BME280;44258;51.288;12.068;2022-08-11T06:22:04;101286.00;;;20.45;42.00
58471;BME280;44258;51.288;12.068;2022-08-11T06:24:34;101282.88;;;20.72;41.36
58471;BME280;44258;51.288;12.068;2022-08-11T06:27:02;101285.13;;;21.00;40.76
58471;BME280;44258;51.288;12.068;2022-08-11T06:29:31;101283.84;;;21.04;40.05
58471;BME280;44258;51.288;12.068;2022-08-11T06:32:00;101285.56;;;21.37;40.37
58471;BME280;44258;51.288;12.068;2022-08-11T06:34:39;101284.16;;;21.22;39.94
58471;BME280;44258;51.288;12.068;2022-08-11T06:37:18;101282.84;;;21.58;39.74
58471;BME280;44258;51.288;12.068;2022-08-11T06:39:51;101285.06;;;21.64;39.06
58471;BME280;44258;51.288;12.068;2022-08-11T06:42:37;101286.22;;;21.71;38.77
58471;BME280;44258;51.288;12.068;2022-08-11T06:45:17;101285.63;;;21.68;38.89
58471;BME280;44258;51.288;12.068;2022-08-11T06:47:49;101279.41;;;21.87;38.02
58471;BME280;44258;51.288;12.068;2022-08-11T06:50:18;101287.06;;;21.93;38.09
58471;BME280;44258;51.288;12.068;2022-08-11T06:53:04;101295.97;;;21.85;38.23
58471;BME280;44258;51.288;12.068;2022-08-11T06:55:34;101292.31;;;21.75;38.60
58471;BME280;44258;51.288;12.068;2022-08-11T06:58:20;101283.13;;;22.07;37.67
58471;BME280;44258;51.288;12.068;2022-08-11T07:01:06;101286.75;;;22.58;36.66
58471;BME280;44258;51.288;12.068;2022-08-11T07:03:39;101290.84;;;22.92;36.59
58471;BME280;44258;51.288;12.068;2022-08-11T07:06:17;101298.19;;;22.72;36.43
58471;BME280;44258;51.288;12.068;2022-08-11T07:09:24;101292.84;;;23.39;36.09
58471;BME280;44258;51.288;12.068;2022-08-11T07:12:33;101279.44;;;23.93;34.28
58471;BME280;44258;51.288;12.068;2022-08-11T07:15:23;101288.00;;;24.27;34.48
58471;BME280;44258;51.288;12.068;2022-08-11T07:18:13;101282.28;;;24.01;34.62
58471;BME280;44258;51.288;12.068;2022-08-11T07:21:11;101283.00;;;23.76;34.88
58471;BME280;44258;51.288;12.068;2022-08-11T07:23:58;101287.72;;;23.83;34.03
58471;BME280;44258;51.288;12.068;2022-08-11T07:26:49;101280.72;;;24.08;34.22
58471;BME280;44258;51.288;12.068;2022-08-11T07:29:36;101278.00;;;24.82;33.17
58471;BME280;44258;51.288;12.068;2022-08-11T07:32:13;101271.59;;;25.17;32.23
58471;BME280;44258;51.288;12.068;2022-08-11T07:34:46;101275.13;;;25.27;32.19
58471;BME280;44258;51.288;12.068;2022-08-11T07:37:15;101283.06;;;25.75;31.98
58471;BME280;44258;51.288;12.068;2022-08-11T07:39:45;101273.09;;;26.00;31.71
58471;BME280;44258;51.288;12.068;2022-08-11T07:42:14;101273.56;;;26.38;31.21
58471;BME280;44258;51.288;12.068;2022-08-11T07:44:43;101272.16;;;26.25;30.18
58471;BME280;44258;51.288;12.068;2022-08-11T07:47:30;101286.81;;;26.34;30.34
58471;BME280;44258;51.288;12.068;2022-08-11T07:50:14;101284.22;;;26.67;30.46
58471;BME280;44258;51.288;12.068;2022-08-11T07:52:59;101282.31;;;26.67;30.13
58471;BME280;44258;51.288;12.068;2022-08-11T07:55:26;101280.59;;;26.24;30.36
58471;BME280;44258;51.288;12.068;2022-08-11T07:57:54;101273.75;;;26.36;30.36
58471;BME280;44258;51.288;12.068;2022-08-11T08:00:44;101279.94;;;26.97;30.12
58471;BME280;44258;51.288;12.068;2022-08-11T08:03:29;101284.25;;;25.98;30.61
58471;BME280;44258;51.288;12.068;2022-08-11T08:06:13;101287.16;;;26.74;29.72
58471;BME280;44258;51.288;12.068;2022-08-11T08:08:58;101271.69;;;27.14;28.79
58471;BME280;44258;51.288;12.068;2022-08-11T08:11:43;101273.78;;;27.53;27.89
58471;BME280;44258;51.288;12.068;2022-08-11T08:14:27;101270.28;;;27.75;27.95
58471;BME280;44258;51.288;12.068;2022-08-11T08:17:13;101272.56;;;28.19;27.69
58471;BME280;44258;51.288;12.068;2022-08-11T08:19:57;101262.44;;;28.43;27.29
58471;BME280;44258;51.288;12.068;2022-08-11T08:22:25;101265.69;;;28.55;27.47
58471;BME280;44258;51.288;12.068;2022-08-11T08:24:52;101267.03;;;28.59;26.59
58471;BME280;44258;51.288;12.068;2022-08-11T08:27:21;101262.44;;;28.43;26.60
58471;BME280;44258;51.288;12.068;2022-08-11T08:29:50;101267.72;;;28.84;26.28
58471;BME280;44258;51.288;12.068;2022-08-11T08:32:37;101259.69;;;29.20;26.06
58471;BME280;44258;51.288;12.068;2022-08-11T08:35:05;101256.56;;;29.23;24.74
58471;BME280;44258;51.288;12.068;2022-08-11T08:37:32;101259.63;;;29.28;25.11
58471;BME280;44258;51.288;12.068;2022-08-11T08:39:59;101262.72;;;29.48;24.88
58471;BME280;44258;51.288;12.068;2022-08-11T08:42:27;101262.63;;;29.42;25.43
58471;BME280;44258;51.288;12.068;2022-08-11T08:44:57;101258.28;;;29.62;25.12
58471;BME280;44258;51.288;12.068;2022-08-11T08:47:25;101252.47;;;29.72;24.49
58471;BME280;44258;51.288;12.068;2022-08-11T08:49:58;101254.44;;;29.63;24.92
58471;BME280;44258;51.288;12.068;2022-08-11T08:52:28;101252.16;;;29.67;23.67
58471;BME280;44258;51.288;12.068;2022-08-11T08:55:01;101251.22;;;29.89;24.46
58471;BME280;44258;51.288;12.068;2022-08-11T08:57:29;101250.56;;;30.17;24.00
58471;BME280;44258;51.288;12.068;2022-08-11T08:59:58;101250.91;;;30.29;23.99
58471;BME280;44258;51.288;12.068;2022-08-11T09:02:27;101239.84;;;30.51;23.35
58471;BME280;44258;51.288;12.068;2022-08-11T09:04:55;101240.16;;;30.56;22.96
58471;BME280;44258;51.288;12.068;2022-08-11T09:07:22;101235.59;;;30.70;22.89
58471;BME280;44258;51.288;12.068;2022-08-11T09:09:52;101229.53;;;30.44;22.63
58471;BME280;44258;51.288;12.068;2022-08-11T09:12:20;101237.94;;;30.51;22.82
58471;BME280;44258;51.288;12.068;2022-08-11T09:14:51;101231.44;;;30.59;22.74
58471;BME280;44258;51.288;12.068;2022-08-11T09:17:30;101230.94;;;29.89;23.39
58471;BME280;44258;51.288;12.068;2022-08-11T09:20:03;101235.19;;;30.36;23.42
58471;BME280;44258;51.288;12.068;2022-08-11T09:22:31;101234.25;;;30.44;22.61
58471;BME280;44258;51.288;12.068;2022-08-11T09:25:15;101225.22;;;29.91;22.82
58471;BME280;44258;51.288;12.068;2022-08-11T09:28:01;101236.28;;;30.35;23.15
58471;BME280;44258;51.288;12.068;2022-08-11T09:30:29;101230.25;;;30.17;22.64
58471;BME280;44258;51.288;12.068;2022-08-11T09:32:57;101219.50;;;30.43;21.74
58471;BME280;44258;51.288;12.068;2022-08-11T09:35:26;101214.25;;;30.34;22.20
58471;BME280;44258;51.288;12.068;2022-08-11T09:37:54;101220.41;;;30.14;21.95
58471;BME280;44258;51.288;12.068;2022-08-11T09:40:40;101217.78;;;29.38;23.27
58471;BME280;44258;51.288;12.068;2022-08-11T09:43:09;101219.00;;;29.59;22.89
58471;BME280;44258;51.288;12.068;2022-08-11T09:45:55;101211.03;;;29.56;22.91
58471;BME280;44258;51.288;12.068;2022-08-11T09:48:24;101214.91;;;28.71;23.28
58471;BME280;44258;51.288;12.068;2022-08-11T09:50:54;101215.94;;;29.16;23.56
58471;BME280;44258;51.288;12.068;2022-08-11T09:53:23;101213.91;;;29.77;22.75
58471;BME280;44258;51.288;12.068;2022-08-11T09:55:51;101205.09;;;30.03;22.04
58471;BME280;44258;51.288;12.068;2022-08-11T09:58:18;101208.19;;;30.08;21.95
58471;BME280;44258;51.288;12.068;2022-08-11T10:00:47;101204.38;;;29.65;22.63
58471;BME280;44258;51.288;12.068;2022-08-11T10:03:15;101197.78;;;29.13;22.81
58471;BME280;44258;51.288;12.068;2022-08-11T10:05:44;101194.72;;;28.85;23.38
58471;BME280;44258;51.288;12.068;2022-08-11T10:08:31;101196.50;;;28.78;23.42
58471;BME280;44258;51.288;12.068;2022-08-11T10:11:00;101196.81;;;29.59;22.52
58471;BME280;44258;51.288;12.068;2022-08-11T10:13:30;101197.41;;;29.54;22.42
58471;BME280;44258;51.288;12.068;2022-08-11T10:16:01;101194.88;;;29.44;22.06
58471;BME280;44258;51.288;12.068;2022-08-11T10:18:32;101193.97;;;29.52;22.15
58471;BME280;44258;51.288;12.068;2022-08-11T10:21:31;101185.31;;;29.47;21.73
58471;BME280;44258;51.288;12.068;2022-08-11T10:24:05;101182.75;;;29.75;21.90
58471;BME280;44258;51.288;12.068;2022-08-11T10:26:52;101181.31;;;29.79;21.58
58471;BME280;44258;51.288;12.068;2022-08-11T10:29:24;101186.88;;;29.79;21.73
58471;BME280;44258;51.288;12.068;2022-08-11T10:32:20;101176.19;;;29.76;21.50
58471;BME280;44258;51.288;12.068;2022-08-11T10:35:05;101177.84;;;29.18;22.01
58471;BME280;44258;51.288;12.068;2022-08-11T10:37:35;101173.03;;;29.12;22.23
58471;BME280;44258;51.288;12.068;2022-08-11T10:40:04;101170.25;;;29.64;21.77
58471;BME280;44258;51.288;12.068;2022-08-11T10:42:33;101158.75;;;29.67;22.03
58471;BME280;44258;51.288;12.068;2022-08-11T10:45:17;101154.81;;;30.06;21.45
58471;BME280;44258;51.288;12.068;2022-08-11T10:48:04;101159.31;;;29.78;22.04
58471;BME280;44258;51.288;12.068;2022-08-11T10:50:31;101146.09;;;28.36;23.05
58471;BME280;44258;51.288;12.068;2022-08-11T10:53:16;101148.59;;;28.54;23.28
58471;BME280;44258;51.288;12.068;2022-08-11T10:56:03;101148.88;;;29.05;23.02
58471;BME280;44258;51.288;12.068;2022-08-11T10:58:49;101152.72;;;29.49;22.28
58471;BME280;44258;51.288;12.068;2022-08-11T11:01:26;101143.53;;;28.58;23.09
58471;BME280;44258;51.288;12.068;2022-08-11T11:03:55;101136.78;;;29.36;22.53
58471;BME280;44258;51.288;12.068;2022-08-11T11:06:28;101133.16;;;29.80;22.12
58471;BME280;44258;51.288;12.068;2022-08-11T11:09:01;101142.91;;;29.76;21.85
58471;BME280;44258;51.288;12.068;2022-08-11T11:11:34;101143.66;;;29.55;21.83
58471;BME280;44258;51.288;12.068;2022-08-11T11:14:21;101146.50;;;29.32;21.67
58471;BME280;44258;51.288;12.068;2022-08-11T11:17:07;101135.53;;;29.54;21.52
58471;BME280;44258;51.288;12.068;2022-08-11T11:19:57;101132.25;;;29.95;20.79
58471;BME280;44258;51.288;12.068;2022-08-11T11:22:27;101140.56;;;30.10;20.84
58471;BME280;44258;51.288;12.068;2022-08-11T11:25:12;101124.16;;;28.58;21.68
58471;BME280;44258;51.288;12.068;2022-08-11T11:27:53;101117.38;;;28.83;22.52
58471;BME280;44258;51.288;12.068;2022-08-11T11:30:26;101117.81;;;28.72;21.45
58471;BME280;44258;51.288;12.068;2022-08-11T11:33:01;101108.84;;;29.23;21.64
58471;BME280;44258;51.288;12.068;2022-08-11T11:35:35;101122.72;;;29.82;21.28
58471;BME280;44258;51.288;12.068;2022-08-11T11:38:06;101110.31;;;30.15;20.80
58471;BME280;44258;51.288;12.068;2022-08-11T11:40:34;101109.19;;;30.31;20.97
58471;BME280;44258;51.288;12.068;2022-08-11T11:43:04;101095.66;;;30.42;20.72
58471;BME280;44258;51.288;12.068;2022-08-11T11:45:31;101118.44;;;29.65;20.60
58471;BME280;44258;51.288;12.068;2022-08-11T11:47:59;101105.78;;;29.47;21.06
58471;BME280;44258;51.288;12.068;2022-08-11T11:50:28;101095.78;;;29.76;20.52
58471;BME280;44258;51.288;12.068;2022-08-11T11:52:57;101098.44;;;28.95;21.75
58471;BME280;44258;51.288;12.068;2022-08-11T11:55:26;101095.97;;;29.60;21.38
58471;BME280;44258;51.288;12.068;2022-08-11T11:57:54;101098.19;;;29.49;21.44
58471;BME280;44258;51.288;12.068;2022-08-11T12:00:40;101106.09;;;29.08;21.85
58471;BME280;44258;51.288;12.068;2022-08-11T12:03:27;101094.25;;;29.44;21.39
58471;BME280;44258;51.288;12.068;2022-08-11T12:05:54;101092.78;;;29.78;20.99
58471;BME280;44258;51.288;12.068;2022-08-11T12:08:23;101087.75;;;29.22;21.81
58471;BME280;44258;51.288;12.068;2022-08-11T12:10:53;101086.25;;;29.19;21.24
58471;BME280;44258;51.288;12.068;2022-08-11T12:13:41;101081.06;;;29.31;22.11
58471;BME280;44258;51.288;12.068;2022-08-11T12:16:11;101090.97;;;29.85;20.33
58471;BME280;44258;51.288;12.068;2022-08-11T12:18:39;101077.34;;;29.68;20.35
58471;BME280;44258;51.288;12.068;2022-08-11T12:21:08;101080.66;;;29.79;19.63
58471;BME280;44258;51.288;12.068;2022-08-11T12:23:37;101075.59;;;29.67;20.16
58471;BME280;44258;51.288;12.068;2022-08-11T12:26:22;101078.84;;;29.71;20.80
58471;BME280;44258;51.288;12.068;2022-08-11T12:29:20;101074.41;;;29.92;20.37
58471;BME280;44258;51.288;12.068;2022-08-11T12:31:53;101070.06;;;29.82;20.55
58471;BME280;44258;51.288;12.068;2022-08-11T12:34:25;101057.41;;;29.80;20.82
58471;BME280;44258;51.288;12.068;2022-08-11T12:36:55;101054.28;;;30.04;20.55
58471;BME280;44258;51.288;12.068;2022-08-11T12:39:24;101052.47;;;30.33;20.59
58471;BME280;44258;51.288;12.068;2022-08-11T12:42:13;101048.72;;;29.83;20.74
58471;BME280;44258;51.288;12.068;2022-08-11T12:44:59;101042.22;;;30.12;20.66
58471;BME280;44258;51.288;12.068;2022-08-11T12:47:48;101043.41;;;29.66;21.07
58471;BME280;44258;51.288;12.068;2022-08-11T12:50:33;101046.72;;;29.77;20.77
58471;BME280;44258;51.288;12.068;2022-08-11T12:53:21;101049.25;;;29.93;20.53
58471;BME280;44258;51.288;12.068;2022-08-11T12:55:51;101041.44;;;30.18;20.54
58471;BME280;44258;51.288;12.068;2022-08-11T12:58:32;101035.94;;;30.25;20.02
58471;BME280;44258;51.288;12.068;2022-08-11T13:01:00;101045.91;;;29.46;20.40
58471;BME280;44258;51.288;12.068;2022-08-11T13:03:45;101037.28;;;29.71;19.92
58471;BME280;44258;51.288;12.068;2022-08-11T13:06:30;101038.16;;;29.93;20.09
58471;BME280;44258;51.288;12.068;2022-08-11T13:08:58;101029.69;;;29.80;20.17
58471;BME280;44258;51.288;12.068;2022-08-11T13:11:25;101031.00;;;30.20;19.61
58471;BME280;44258;51.288;12.068;2022-08-11T13:14:11;101032.09;;;30.47;19.71
58471;BME280;44258;51.288;12.068;2022-08-11T13:16:37;101023.91;;;30.61;19.34
58471;BME280;44258;51.288;12.068;2022-08-11T13:19:20;101024.13;;;30.38;19.36
58471;BME280;44258;51.288;12.068;2022-08-11T13:21:51;101031.03;;;30.48;19.04
58471;BME280;44258;51.288;12.068;2022-08-11T13:24:19;101022.44;;;30.15;19.37
58471;BME280;44258;51.288;12.068;2022-08-11T13:26:47;101024.38;;;29.78;20.00
58471;BME280;44258;51.288;12.068;2022-08-11T13:29:20;101025.53;;;29.39;19.90
58471;BME280;44258;51.288;12.068;2022-08-11T13:31:47;101012.97;;;29.22;20.07
58471;BME280;44258;51.288;12.068;2022-08-11T13:34:14;101006.63;;;29.58;19.59
58471;BME280;44258;51.288;12.068;2022-08-11T13:36:43;100997.84;;;30.12;19.36
58471;BME280;44258;51.288;12.068;2022-08-11T13:39:11;100999.59;;;30.41;19.03
58471;BME280;44258;51.288;12.068;2022-08-11T13:41:39;100999.00;;;30.24;18.92
58471;BME280;44258;51.288;12.068;2022-08-11T13:44:10;100995.97;;;29.10;19.84
58471;BME280;44258;51.288;12.068;2022-08-11T13:46:38;100991.28;;;29.25;19.57
58471;BME280;44258;51.288;12.068;2022-08-11T13:49:06;100994.53;;;29.14;20.13
58471;BME280;44258;51.288;12.068;2022-08-11T13:51:34;100994.50;;;29.44;19.90
58471;BME280;44258;51.288;12.068;2022-08-11T13:54:06;100974.09;;;29.88;19.83
58471;BME280;44258;51.288;12.068;2022-08-11T13:56:35;100968.97;;;29.85;19.79